Country
Station

 

Weather  for  San Jose, San Jose International Airport  -  United States    United States

  
16 °C (61 °F)
    
 
 

Current METAR for San Jose, San Jose International Airport is :

KSJC 180953Z AUTO 00000KT 10SM CLR 16/12 A2998 RMK AO2 SLP150 T01560117 $

 

This is a report for San Jose, San Jose International Airport - United States.
 
The report was made 20 minutes ago, at 09:53 UTC .
The wind was calm.
 
The temperature was 16 °C (61 °F), with a dew-point at 12 °C (54 °F).
The atmospheric pressure was 1015 hPa (29.98 inHg).
The relative humidity was 77.1%.
 
The sky was clear.
 
The overall visibility was 16.1 kilometers (10.0 miles).
 

 
 
 
 

Country :   A   B   C   D   E   F   G   H   I   J   K   L   M   N   O   P   Q   R   S   T   U   V   W   Y   Z

 

Site Info  |  Disclaimer  |  Credits  |  Privacy
Contact us  |  Add to favorites
© 2013-2019 METARs - All rights reserved